createdAt,value
2023-08-24T00:01:44.883Z,101173.09
2023-08-24T00:04:50.808Z,101177.75
2023-08-24T00:07:57.342Z,101181.19
2023-08-24T00:11:03.854Z,101185.84
2023-08-24T00:14:10.765Z,101190.53
2023-08-24T00:17:16.567Z,101188.34
2023-08-24T00:20:24.375Z,101184.22
2023-08-24T00:23:29.806Z,101194.22
2023-08-24T00:26:36.181Z,101194.22
2023-08-24T00:29:42.463Z,101200.91
2023-08-24T00:32:48.294Z,101191.34
2023-08-24T00:35:53.952Z,101196.28
2023-08-24T00:39:00.977Z,101186.59
2023-08-24T00:42:07.437Z,101184.31
2023-08-24T00:45:14.383Z,101181.25
2023-08-24T00:48:22.871Z,101189.75
2023-08-24T00:51:28.974Z,101186.63
2023-08-24T00:54:35.201Z,101188.81
2023-08-24T00:57:43.539Z,101185.84
2023-08-24T01:00:55.190Z,101184.91
2023-08-24T01:04:01.157Z,101178.66
2023-08-24T01:07:09.631Z,101184.94
2023-08-24T01:10:15.610Z,101177.66
2023-08-24T01:13:43.060Z,101180.94
2023-08-24T01:16:52.096Z,101181.63
2023-08-24T01:19:59.620Z,101170.78
2023-08-24T01:23:33.746Z,101179.44
2023-08-24T01:26:41.122Z,101180.44
2023-08-24T01:29:47.293Z,101182.25
2023-08-24T01:32:53.661Z,101184.78
2023-08-24T01:35:59.961Z,101184.19
2023-08-24T01:39:17.099Z,101177.78
2023-08-24T01:42:27.902Z,101187.06
2023-08-24T01:45:35.696Z,101183.28
2023-08-24T01:48:42.644Z,101191.75
2023-08-24T01:51:50.197Z,101192.63
2023-08-24T01:54:58.082Z,101189.88
2023-08-24T01:58:04.894Z,101188.13
2023-08-24T02:01:12.074Z,101176.88
2023-08-24T02:04:17.941Z,101183.72
2023-08-24T02:07:23.980Z,101178.78
2023-08-24T02:10:29.893Z,101178.63
2023-08-24T02:13:36.303Z,101180.66
2023-08-24T02:16:42.326Z,101178.00
2023-08-24T02:19:48.166Z,101181.25
2023-08-24T02:22:55.163Z,101174.84
2023-08-24T02:26:01.810Z,101179.59
2023-08-24T02:29:07.675Z,101180.81
2023-08-24T02:32:13.439Z,101175.69
2023-08-24T02:35:19.685Z,101179.00
2023-08-24T02:38:25.920Z,101170.16
2023-08-24T02:41:31.766Z,101170.88
2023-08-24T02:44:37.598Z,101160.22
2023-08-24T02:47:43.869Z,101155.75
2023-08-24T02:50:49.613Z,101163.41
2023-08-24T02:53:55.677Z,101166.75
2023-08-24T02:57:01.554Z,101167.06
2023-08-24T03:00:08.497Z,101166.66
2023-08-24T03:03:18.489Z,101155.66
2023-08-24T03:06:25.815Z,101152.31
2023-08-24T03:09:31.611Z,101153.06
2023-08-24T03:12:37.725Z,101151.47
2023-08-24T03:15:43.831Z,101156.41
2023-08-24T03:18:51.327Z,101152.72
2023-08-24T03:21:57.773Z,101153.66
2023-08-24T03:25:04.190Z,101149.97
2023-08-24T03:28:11.012Z,101159.97
2023-08-24T03:31:16.751Z,101165.72
2023-08-24T03:34:22.388Z,101158.75
2023-08-24T03:37:28.130Z,101156.81
2023-08-24T03:40:34.287Z,101160.13
2023-08-24T03:43:39.783Z,101150.47
2023-08-24T03:46:45.519Z,101158.50
2023-08-24T03:49:51.863Z,101153.72
2023-08-24T03:52:58.374Z,101152.09
2023-08-24T03:56:04.462Z,101162.84
2023-08-24T03:59:11.819Z,101155.63
2023-08-24T04:02:18.153Z,101157.25
2023-08-24T04:05:24.726Z,101161.53
2023-08-24T04:08:30.822Z,101160.06
2023-08-24T04:11:37.106Z,101161.91
2023-08-24T04:14:42.352Z,101154.94
2023-08-24T04:17:49.256Z,101160.34
2023-08-24T04:20:56.064Z,101164.53
2023-08-24T04:24:02.019Z,101177.41
2023-08-24T04:27:07.898Z,101180.63
2023-08-24T04:30:15.357Z,101179.72
2023-08-24T04:33:20.984Z,101185.50
2023-08-24T04:36:27.005Z,101184.22
2023-08-24T04:39:33.628Z,101194.34
2023-08-24T04:42:39.791Z,101209.88
2023-08-24T04:45:49.035Z,101207.19
2023-08-24T04:48:55.259Z,101215.06
2023-08-24T04:52:01.374Z,101222.28
2023-08-24T04:55:07.187Z,101207.97
2023-08-24T04:58:13.660Z,101215.34
2023-08-24T05:01:20.503Z,101208.28
2023-08-24T05:04:26.259Z,101214.34
2023-08-24T05:07:32.364Z,101212.44
2023-08-24T05:10:39.390Z,101217.88
2023-08-24T05:13:46.174Z,101219.28
2023-08-24T05:16:52.127Z,101210.91
2023-08-24T05:19:57.911Z,101212.22
2023-08-24T05:23:03.638Z,101217.34
2023-08-24T05:26:09.288Z,101211.34
2023-08-24T05:29:15.570Z,101211.81
2023-08-24T05:32:21.575Z,101208.03
2023-08-24T05:35:28.987Z,101206.59
2023-08-24T05:38:34.456Z,101216.69
2023-08-24T05:41:40.197Z,101211.19
2023-08-24T05:44:45.572Z,101206.75
2023-08-24T05:47:50.871Z,101209.56
2023-08-24T05:50:56.643Z,101210.97
2023-08-24T05:54:02.841Z,101222.97
2023-08-24T05:57:08.600Z,101224.31
2023-08-24T06:00:15.128Z,101231.28
2023-08-24T06:03:21.234Z,101228.88
2023-08-24T06:06:26.977Z,101219.63
2023-08-24T06:09:33.249Z,101233.78
2023-08-24T06:12:39.270Z,101228.38
2023-08-24T06:15:44.524Z,101230.31
2023-08-24T06:18:51.263Z,101227.56
2023-08-24T06:21:56.586Z,101235.69
2023-08-24T06:25:02.524Z,101222.34
2023-08-24T06:28:09.928Z,101229.78
2023-08-24T06:31:16.534Z,101233.03
2023-08-24T06:34:22.421Z,101235.66
2023-08-24T06:37:28.205Z,101232.25
2023-08-24T06:40:34.136Z,101236.59
2023-08-24T06:43:42.454Z,101234.69
2023-08-24T06:46:48.319Z,101235.47
2023-08-24T06:49:53.946Z,101233.91
2023-08-24T06:52:59.380Z,101233.91
2023-08-24T06:56:05.399Z,101235.72
2023-08-24T06:59:14.590Z,101234.44
2023-08-24T07:02:20.206Z,101236.97
2023-08-24T07:05:25.718Z,101233.88
2023-08-24T07:08:31.461Z,101244.03
2023-08-24T07:11:37.289Z,101242.75
2023-08-24T07:14:42.919Z,101247.94
2023-08-24T07:17:48.727Z,101243.66
2023-08-24T07:20:55.753Z,101248.41
2023-08-24T07:24:01.333Z,101249.63
2023-08-24T07:27:07.050Z,101257.72
2023-08-24T07:30:30.320Z,101247.53
2023-08-24T07:33:42.286Z,101257.75
2023-08-24T07:36:49.936Z,101259.28
2023-08-24T07:39:55.216Z,101252.19
2023-08-24T07:43:02.172Z,101246.66
2023-08-24T07:46:09.031Z,101240.06
2023-08-24T07:49:15.316Z,101241.03
2023-08-24T07:52:22.923Z,101257.28
2023-08-24T07:55:28.326Z,101243.59
2023-08-24T07:58:34.034Z,101243.75
2023-08-24T08:01:39.376Z,101252.28
2023-08-24T08:04:45.574Z,101250.84
2023-08-24T08:07:51.417Z,101253.69
2023-08-24T08:11:01.661Z,101258.59
2023-08-24T08:14:07.127Z,101250.81
2023-08-24T08:17:12.909Z,101251.25
2023-08-24T08:20:18.327Z,101247.84
2023-08-24T08:23:24.090Z,101248.97
2023-08-24T08:26:30.230Z,101242.44
2023-08-24T08:29:35.357Z,101247.16
2023-08-24T08:32:40.873Z,101246.47
2023-08-24T08:35:46.761Z,101241.25
2023-08-24T08:38:53.098Z,101248.44
2023-08-24T08:41:58.698Z,101251.38
2023-08-24T08:45:09.707Z,101256.69
2023-08-24T08:48:15.540Z,101259.28
2023-08-24T08:51:21.609Z,101250.16
2023-08-24T08:54:27.572Z,101259.56
2023-08-24T08:57:34.391Z,101254.00
2023-08-24T09:00:40.639Z,101260.25
2023-08-24T09:03:46.751Z,101256.19
2023-08-24T09:06:52.343Z,101251.91
2023-08-24T09:09:57.712Z,101247.59
2023-08-24T09:13:04.157Z,101238.34
2023-08-24T09:16:12.102Z,101251.16
2023-08-24T09:19:17.584Z,101243.91
2023-08-24T09:22:23.288Z,101244.31
2023-08-24T09:25:29.112Z,101240.69
2023-08-24T09:28:37.766Z,101239.44
2023-08-24T09:31:47.526Z,101231.75
2023-08-24T09:34:53.410Z,101227.00
2023-08-24T09:37:59.664Z,101223.88
2023-08-24T09:41:05.510Z,101221.03
2023-08-24T09:44:12.455Z,101229.31
2023-08-24T09:47:18.038Z,101214.69
2023-08-24T09:50:24.479Z,101215.03
2023-08-24T09:53:33.873Z,101211.03
2023-08-24T09:56:41.454Z,101201.44
2023-08-24T09:59:50.098Z,101206.25
2023-08-24T10:02:57.087Z,101206.75
2023-08-24T10:06:08.972Z,101205.69
2023-08-24T10:09:28.678Z,101202.94
2023-08-24T10:12:43.143Z,101202.34
2023-08-24T10:15:50.127Z,101199.72
2023-08-24T10:18:56.650Z,101199.81
2023-08-24T10:22:03.387Z,101201.41
2023-08-24T10:25:10.637Z,101193.66
2023-08-24T10:28:18.029Z,101197.69
2023-08-24T10:31:24.944Z,101199.69
2023-08-24T10:34:31.039Z,101187.63
2023-08-24T10:37:36.911Z,101189.81
2023-08-24T10:40:46.174Z,101191.63
2023-08-24T10:43:51.641Z,101184.28
2023-08-24T10:47:19.474Z,101179.97
2023-08-24T10:50:24.962Z,101172.94
2023-08-24T10:53:40.660Z,101179.78
2023-08-24T10:56:55.419Z,101174.56
2023-08-24T11:00:08.066Z,101179.78
2023-08-24T11:03:35.716Z,101174.72
2023-08-24T11:07:04.165Z,101178.75
2023-08-24T11:10:14.322Z,101175.09
2023-08-24T11:13:24.407Z,101170.78
2023-08-24T11:16:42.961Z,101163.34
2023-08-24T11:19:54.337Z,101168.56
2023-08-24T11:23:00.137Z,101159.41
2023-08-24T11:26:06.019Z,101155.47
2023-08-24T11:29:12.185Z,101153.53
2023-08-24T11:32:20.275Z,101152.72
2023-08-24T11:35:26.372Z,101148.44
2023-08-24T11:38:43.444Z,101147.66
2023-08-24T11:42:05.525Z,101147.25
2023-08-24T11:45:14.889Z,101139.44
2023-08-24T11:48:21.091Z,101136.31
2023-08-24T11:51:37.923Z,101139.50
2023-08-24T11:54:48.497Z,101133.56
2023-08-24T11:57:54.657Z,101126.00
2023-08-24T12:01:00.899Z,101133.28
2023-08-24T12:04:07.501Z,101118.31
2023-08-24T12:07:14.144Z,101116.69
2023-08-24T12:10:20.322Z,101111.25
2023-08-24T12:13:25.971Z,101108.91
2023-08-24T12:16:34.324Z,101106.16
2023-08-24T12:20:02.558Z,101103.00
2023-08-24T12:23:09.370Z,101104.16
2023-08-24T12:26:20.940Z,101094.28
2023-08-24T12:29:26.699Z,101095.88
2023-08-24T12:32:53.475Z,101094.72
2023-08-24T12:36:02.184Z,101089.19
2023-08-24T12:39:09.199Z,101090.00
2023-08-24T12:42:14.524Z,101083.66
2023-08-24T12:45:20.096Z,101079.69
2023-08-24T12:48:25.391Z,101074.56
2023-08-24T12:51:30.638Z,101076.91
2023-08-24T12:54:36.323Z,101071.81
2023-08-24T12:57:42.053Z,101069.03
2023-08-24T13:00:50.160Z,101063.91
2023-08-24T13:03:56.457Z,101054.34
2023-08-24T13:07:02.730Z,101050.41
2023-08-24T13:10:08.768Z,101055.16
2023-08-24T13:13:14.406Z,101045.63
2023-08-24T13:16:20.019Z,101042.84
2023-08-24T13:19:25.659Z,101042.09
2023-08-24T13:22:31.172Z,101038.91
2023-08-24T13:25:36.816Z,101034.53
2023-08-24T13:28:43.403Z,101025.41
2023-08-24T13:31:49.321Z,101019.88
2023-08-24T13:34:55.040Z,101018.69
2023-08-24T13:38:00.425Z,101014.31
2023-08-24T13:41:06.044Z,101009.19
2023-08-24T13:44:11.396Z,101013.91
2023-08-24T13:47:17.124Z,101005.97
2023-08-24T13:50:22.502Z,101008.31
2023-08-24T13:53:28.492Z,101005.91
2023-08-24T13:56:35.077Z,101001.13
2023-08-24T13:59:42.125Z,101005.84
2023-08-24T14:02:50.017Z,101000.72
2023-08-24T14:05:59.223Z,101000.31
2023-08-24T14:09:08.168Z,101001.09
2023-08-24T14:12:13.575Z,100993.19
2023-08-24T14:15:18.962Z,100996.38
2023-08-24T14:18:24.382Z,100997.16
2023-08-24T14:21:44.192Z,100989.25
2023-08-24T14:24:50.825Z,100991.59
2023-08-24T14:28:04.746Z,100988.03
2023-08-24T14:31:12.656Z,100982.38
2023-08-24T14:34:17.710Z,100980.44
2023-08-24T14:37:23.118Z,100975.72
2023-08-24T14:40:28.894Z,100978.91
2023-08-24T14:43:34.854Z,100979.69
2023-08-24T14:46:40.539Z,100971.25
2023-08-24T14:49:45.782Z,100973.34
2023-08-24T14:52:51.008Z,100975.00
2023-08-24T14:55:57.149Z,100974.06
2023-08-24T14:59:04.270Z,100964.13
2023-08-24T15:02:10.263Z,100963.34
2023-08-24T15:05:16.576Z,100961.84
2023-08-24T15:08:22.578Z,100964.19
2023-08-24T15:11:28.757Z,100955.50
2023-08-24T15:14:34.272Z,100947.53
2023-08-24T15:17:39.691Z,100943.94
2023-08-24T15:20:45.997Z,100954.28
2023-08-24T15:23:52.011Z,100949.03
2023-08-24T15:26:57.722Z,100939.94
2023-08-24T15:30:06.504Z,100934.00
2023-08-24T15:33:12.550Z,100927.72
2023-08-24T15:36:18.261Z,100926.56
2023-08-24T15:39:25.426Z,100926.63
2023-08-24T15:42:31.666Z,100923.09
2023-08-24T15:45:37.737Z,100919.13
2023-08-24T15:48:44.591Z,100915.97
2023-08-24T15:51:50.929Z,100905.69
2023-08-24T15:54:56.795Z,100914.78
2023-08-24T15:58:03.898Z,100915.59
2023-08-24T16:01:09.364Z,100910.03
2023-08-24T16:04:15.263Z,100913.22
2023-08-24T16:07:20.777Z,100903.69
2023-08-24T16:10:26.012Z,100914.09
2023-08-24T16:13:32.035Z,100918.84
2023-08-24T16:16:37.776Z,100916.47
2023-08-24T16:19:46.833Z,100910.09
2023-08-24T16:22:52.473Z,100910.09
2023-08-24T16:25:58.314Z,100914.09
2023-08-24T16:29:04.351Z,100909.34
2023-08-24T16:32:10.072Z,100908.19
2023-08-24T16:35:15.827Z,100907.75
2023-08-24T16:38:21.573Z,100903.09
2023-08-24T16:41:27.464Z,100905.81
2023-08-24T16:44:33.515Z,100901.50
2023-08-24T16:47:38.956Z,100896.03
2023-08-24T16:50:45.350Z,100894.41
2023-08-24T16:53:51.084Z,100898.00
2023-08-24T16:56:56.580Z,100900.78
2023-08-24T17:00:01.777Z,100895.22
2023-08-24T17:03:07.595Z,100894.84
2023-08-24T17:06:13.084Z,100900.38
2023-08-24T17:09:18.684Z,100905.94
2023-08-24T17:12:26.202Z,100902.38
2023-08-24T17:15:32.599Z,100901.97
2023-08-24T17:18:39.894Z,100905.53
2023-08-24T17:21:45.607Z,100905.09
2023-08-24T17:24:52.269Z,100903.91
2023-08-24T17:27:58.439Z,100907.88
2023-08-24T17:31:05.954Z,100915.34
2023-08-24T17:34:11.544Z,100918.88
2023-08-24T17:37:16.832Z,100919.22
2023-08-24T17:40:22.693Z,100922.72
2023-08-24T17:43:28.728Z,100924.59
2023-08-24T17:46:35.717Z,100921.81
2023-08-24T17:49:42.083Z,100933.91
2023-08-24T17:52:47.777Z,100924.72
2023-08-24T17:55:54.766Z,100926.28
2023-08-24T17:59:00.866Z,100932.94
2023-08-24T18:02:07.517Z,100942.38
2023-08-24T18:05:13.603Z,100948.63
2023-08-24T18:08:21.214Z,100945.75
2023-08-24T18:11:27.388Z,100952.00
2023-08-24T18:14:33.179Z,100953.50
2023-08-24T18:17:41.533Z,100949.13
2023-08-24T18:20:47.818Z,100952.94
2023-08-24T18:23:53.590Z,100960.81
2023-08-24T18:26:59.997Z,100961.16
2023-08-24T18:30:06.855Z,100959.94
2023-08-24T18:33:12.896Z,100959.47
2023-08-24T18:36:18.795Z,100961.34
2023-08-24T18:39:25.164Z,100963.28
2023-08-24T18:42:31.119Z,100963.22
2023-08-24T18:45:36.512Z,100970.22
2023-08-24T18:48:42.460Z,100976.53
2023-08-24T18:51:51.675Z,100982.34
2023-08-24T18:54:59.777Z,100985.81
2023-08-24T18:58:05.713Z,100989.25
2023-08-24T19:01:16.102Z,100985.66
2023-08-24T19:04:22.194Z,100987.63
2023-08-24T19:07:27.847Z,100998.22
2023-08-24T19:10:33.582Z,101001.66
2023-08-24T19:13:39.335Z,101002.75
2023-08-24T19:16:46.913Z,100998.38
2023-08-24T19:19:52.664Z,101005.78
2023-08-24T19:22:58.406Z,101008.94
2023-08-24T19:26:04.482Z,101024.13
2023-08-24T19:29:09.738Z,101023.22
2023-08-24T19:32:15.361Z,101018.50
2023-08-24T19:35:21.327Z,101023.41
2023-08-24T19:38:26.897Z,101034.22
2023-08-24T19:41:33.139Z,101034.97
2023-08-24T19:44:40.185Z,101031.28
2023-08-24T19:47:46.151Z,101030.06
2023-08-24T19:50:52.214Z,101027.69
2023-08-24T19:53:58.866Z,101022.13
2023-08-24T19:57:04.595Z,101016.19
2023-08-24T20:00:10.504Z,101018.44
2023-08-24T20:03:21.465Z,101019.66
2023-08-24T20:06:27.841Z,101006.44
2023-08-24T20:09:35.288Z,101005.72
2023-08-24T20:12:40.440Z,101004.63
2023-08-24T20:15:46.202Z,101007.50
2023-08-24T20:18:52.352Z,100999.72
2023-08-24T20:21:59.843Z,101012.59
2023-08-24T20:25:05.726Z,101019.78
2023-08-24T20:28:11.293Z,101025.72
2023-08-24T20:31:17.254Z,101036.84
2023-08-24T20:34:23.406Z,101026.44
2023-08-24T20:37:29.392Z,101037.38
2023-08-24T20:40:35.286Z,101043.94
2023-08-24T20:43:40.788Z,101039.88
2023-08-24T20:46:46.317Z,101058.69
2023-08-24T20:49:53.107Z,101055.47
2023-08-24T20:53:01.447Z,101060.53
2023-08-24T20:56:07.425Z,101061.91
2023-08-24T20:59:12.841Z,101060.03
2023-08-24T21:02:18.198Z,101054.34
2023-08-24T21:05:23.651Z,101054.56
2023-08-24T21:08:29.409Z,101047.38
2023-08-24T21:11:35.395Z,101059.72
2023-08-24T21:14:40.649Z,101050.16
2023-08-24T21:17:46.371Z,101048.78
2023-08-24T21:21:00.733Z,101051.19
2023-08-24T21:24:06.445Z,101050.16
2023-08-24T21:27:11.526Z,101047.13
2023-08-24T21:30:17.239Z,101050.16
2023-08-24T21:33:23.163Z,101046.25
2023-08-24T21:36:28.700Z,101050.03
2023-08-24T21:39:35.265Z,101041.91
2023-08-24T21:42:41.627Z,101044.09
2023-08-24T21:45:47.088Z,101048.34
2023-08-24T21:48:52.728Z,101036.19
2023-08-24T21:51:58.400Z,101026.53
2023-08-24T21:55:03.750Z,101030.63
2023-08-24T21:58:14.010Z,101022.13
2023-08-24T22:01:19.808Z,101017.06
2023-08-24T22:04:25.437Z,101011.41
2023-08-24T22:07:32.796Z,101006.63
2023-08-24T22:10:38.364Z,101005.63
2023-08-24T22:13:43.944Z,101005.72
2023-08-24T22:16:49.303Z,101003.31
2023-08-24T22:19:54.851Z,101005.97
2023-08-24T22:23:00.480Z,101000.31
2023-08-24T22:26:06.359Z,100996.34
2023-08-24T22:29:13.640Z,100998.38
2023-08-24T22:32:19.552Z,101000.31
2023-08-24T22:35:25.646Z,100994.22
2023-08-24T22:38:32.490Z,100990.31
2023-08-24T22:41:37.981Z,101001.53
2023-08-24T22:44:43.653Z,100991.47
2023-08-24T22:47:49.431Z,100992.09
2023-08-24T22:50:55.241Z,101000.44
2023-08-24T22:54:01.333Z,100997.13
2023-08-24T22:57:06.853Z,100992.72
2023-08-24T23:00:13.130Z,100991.63
2023-08-24T23:03:19.483Z,100992.50
2023-08-24T23:06:57.771Z,100992.53
2023-08-24T23:10:07.499Z,100984.22
2023-08-24T23:13:13.557Z,100982.88
2023-08-24T23:16:19.020Z,100978.88
2023-08-24T23:19:24.952Z,100979.94
2023-08-24T23:22:30.406Z,100967.97
2023-08-24T23:25:35.947Z,100976.19
2023-08-24T23:28:41.804Z,100965.22
2023-08-24T23:31:47.278Z,100961.91
2023-08-24T23:34:53.218Z,100954.00
2023-08-24T23:37:58.938Z,100960.53
2023-08-24T23:41:04.830Z,100958.94
2023-08-24T23:44:10.336Z,100948.53
2023-08-24T23:47:15.291Z,100953.13
2023-08-24T23:50:21.012Z,100953.22
2023-08-24T23:53:26.290Z,100953.13
2023-08-24T23:56:31.666Z,100944.66
2023-08-24T23:59:37.358Z,100937.66
